Alpine, AL (35014)

7:33 PM CDT on May 29, 2015 (GMT -0500)
Sycamore,Alabama | | Change Station
CLOSE
Current Station
Personal Weather Station
Location: Sycamore, AL
Elevation: 552 ft
Nearby Weather Stations

Elev 552 ft 33.26 °N, 86.21 °W | Updated 2 seconds ago

Clear
Clear
74.8 °F
Feels Like 74 °F
N
0.7
Wind Variable Wind from South
Gusts 0.7 mph

Today
High -- | Low -- °F
--% Chance of Precip.
Yesterday
High -- | Low -- °F
Precip. -- in
5:37 AM 7:47 PM
Waxing Gibbous, 87% visible
Pressure 30.09 in
Visibility 10.0 miles
Clouds Scattered Clouds 10000 ft
Heat Index 74 °F
Dew Point 72 °F
Humidity 90%
Rainfall 0.66 in
Snow Depth Not available.
UV 0 out of 12
Pollen .20 out of 12
Air Quality Not available.
Flu Activity Sporadic
METAR KANB 292353Z AUTO 00000KT 10SM SCT100 25/21 A3011 RMK AO2 SLP188 T02500206 10283 20228 55011

More Conditions Fewer Conditions

Pressure 30.09 in
Visibility 10.0 miles
Clouds Scattered Clouds 10000 ft
Heat Index 74 °F
Dew Point 72 °F
Humidity 90%
Rainfall 0.66 in
Snow Depth Not available.
UV 0 out of 12
Pollen .20 out of 12
Air Quality Not available.
Flu Activity Sporadic
METAR KANB 292353Z AUTO 00000KT 10SM SCT100 25/21 A3011 RMK AO2 SLP188 T02500206 10283 20228 55011

More Conditions Fewer Conditions

10-Day Weather Forecast

Almanac

Astronomy

May. 29, 2015 Rise Set
Actual Time
Civil Twilight
Nautical Twilight
Astronomical Twilight
Moon
Length of Visible Light
Length of Day
Tomorrow will be .
, % of the Moon is Illuminated

Today's Extremes

State Highs State Lows

Community

WunderPhotos

Upload Photos

1,825,411 photos uploaded!

WunderBlogs® & News

Nearby

Air Quality

  Air Quality AQ Index Pollutant
Not available.

Snow Depth

Station Depth Elevation

Earthquake Activity

City Distance Mag. Time & Date
Minimum magnitude displayed is 2.5.

Coastal Water Temperatures

Place Temperature

Stations

Nearby Weather Stations

Station Location Temp. Windchill Dew Point Humidity Wind Precip. Elev Updated Type